« 水道工事と濃霧と春一番♪ | トップページ | ひな祭りと南極観測船しらねとモグラ・・・・ »

2010年2月28日 (日)

2月最後の週末は・・・・・雨

RJAA 270000Z 03022G35KT 6000 SHRA BR FEW003 BKN006 BKN020 09/08 Q1006 WS R34R TEMPO 4000 SHRA BR
RJAA 270300Z 03021G31KT 9999 -RA FEW009 BKN010 08/05 Q1009 NOSIG
RJAA 270600Z 04015KT 9999 SCT010 BKN060 BKN110 07/05 Q1011 WS R34L WS R34R TEMPO 02018G30KT
RJAA 270900Z 04010KT 350V060 9999 SCT010 BKN100 06/04 Q1013 WS R34L NOSIG

27日(土)rainraintyphoon slateで遊んだりしたけど・・・・つまらない(泣)
夕方になり、飛行場の近くに新築の家を買ったS本夫妻と成田温泉spaに行ってみる~
ちょっと高いけど食事も美味しいし近くの割にはOKかも!
94B95754-0403-4BC2-B152-4AA55826EB44
かんぱ~いbeerbeer
AC197652-BD96-4379-AE96-A8F2765E9363
王蟲の眼?みたいなピザgood
54FC328B-2A9B-4B4C-A5EA-53F9344DDA57
天婦羅蕎麦・・・・美味しいけど・・・量が凄い!
RJAA 280000Z 02016KT 6000 -RA BR FEW005 SCT010 BKN040 04/03 Q1013 TEMPO 02016G28KT 4000 RA BR BKN006 BKN012
RJAA 280300Z 35009KT 2200 SHSN BR FEW002 BKN004 02/01 Q1014 TEMPO 02016G28KT RMK 1ST002 7ST004 A2995
RJAA 280600Z 36010KT 330V040 9999 FEW003 BKN006 04/03 Q1013 BECMG BKN012
RJAA 280900Z 08005KT 020V120 9999 FEW012 04/02 Q1015 NOSIG


----------------------------------------------------------------------------------------------------------------------

28日(日)rainraintyphoon 飛行場のクラブハウスにはrainなのにクラブ員が数名集まっています(笑)
昼過ぎになり雨があがったけど雲底が低い~
日没1時間前になってようやく飛べる天気になり、朝から粘っていたmoguji~さんが、本日入会された方を誘って飛んでいました。
私は、こっそりmoguji~さんの飛ぶ機体にG○S付きの×○×△φωを仕掛けて・・・・
( ̄ー ̄)ニヤリscissors

|

« 水道工事と濃霧と春一番♪ | トップページ | ひな祭りと南極観測船しらねとモグラ・・・・ »

日記・コラム・つぶやき」カテゴリの記事